sensor_id;sensor_type;location;lat;lon;timestamp;P1;durP1;ratioP1;P2;durP2;ratioP2
3571;SDS011;7958;53.024;12.970;2024-02-21T00:01:02;21.03;;;8.13;;
3571;SDS011;7958;53.024;12.970;2024-02-21T00:03:29;22.40;;;8.27;;
3571;SDS011;7958;53.024;12.970;2024-02-21T00:05:55;27.07;;;8.43;;
3571;SDS011;7958;53.024;12.970;2024-02-21T00:08:22;29.97;;;8.23;;
3571;SDS011;7958;53.024;12.970;2024-02-21T00:10:48;22.40;;;8.00;;
3571;SDS011;7958;53.024;12.970;2024-02-21T00:13:14;21.20;;;9.07;;
3571;SDS011;7958;53.024;12.970;2024-02-21T00:15:41;19.10;;;8.27;;
3571;SDS011;7958;53.024;12.970;2024-02-21T00:18:11;15.50;;;7.83;;
3571;SDS011;7958;53.024;12.970;2024-02-21T00:20:37;24.50;;;7.93;;
3571;SDS011;7958;53.024;12.970;2024-02-21T00:23:04;25.00;;;7.70;;
3571;SDS011;7958;53.024;12.970;2024-02-21T00:25:30;22.10;;;7.60;;
3571;SDS011;7958;53.024;12.970;2024-02-21T00:27:57;21.50;;;8.27;;
3571;SDS011;7958;53.024;12.970;2024-02-21T00:30:23;14.17;;;7.47;;
3571;SDS011;7958;53.024;12.970;2024-02-21T00:32:49;22.93;;;6.90;;
3571;SDS011;7958;53.024;12.970;2024-02-21T00:35:17;18.23;;;6.53;;
3571;SDS011;7958;53.024;12.970;2024-02-21T00:37:43;18.57;;;6.77;;
3571;SDS011;7958;53.024;12.970;2024-02-21T00:40:10;23.63;;;8.03;;
3571;SDS011;7958;53.024;12.970;2024-02-21T00:42:36;15.70;;;7.30;;
3571;SDS011;7958;53.024;12.970;2024-02-21T00:45:05;14.70;;;7.00;;
3571;SDS011;7958;53.024;12.970;2024-02-21T00:47:33;17.90;;;5.80;;
3571;SDS011;7958;53.024;12.970;2024-02-21T00:49:59;21.47;;;7.27;;
3571;SDS011;7958;53.024;12.970;2024-02-21T00:52:27;22.63;;;7.07;;
3571;SDS011;7958;53.024;12.970;2024-02-21T00:54:53;12.33;;;5.90;;
3571;SDS011;7958;53.024;12.970;2024-02-21T00:57:19;24.00;;;6.40;;
3571;SDS011;7958;53.024;12.970;2024-02-21T00:59:46;13.80;;;5.87;;
3571;SDS011;7958;53.024;12.970;2024-02-21T01:02:12;23.07;;;6.33;;
3571;SDS011;7958;53.024;12.970;2024-02-21T01:04:39;18.53;;;6.10;;
3571;SDS011;7958;53.024;12.970;2024-02-21T01:07:05;16.40;;;6.17;;
3571;SDS011;7958;53.024;12.970;2024-02-21T01:09:33;15.00;;;5.97;;
3571;SDS011;7958;53.024;12.970;2024-02-21T01:11:59;16.17;;;5.60;;
3571;SDS011;7958;53.024;12.970;2024-02-21T01:14:25;26.83;;;7.07;;
3571;SDS011;7958;53.024;12.970;2024-02-21T01:16:52;16.33;;;5.43;;
3571;SDS011;7958;53.024;12.970;2024-02-21T01:19:19;15.77;;;6.23;;
3571;SDS011;7958;53.024;12.970;2024-02-21T01:21:45;17.77;;;5.30;;
3571;SDS011;7958;53.024;12.970;2024-02-21T01:24:11;10.13;;;5.30;;
3571;SDS011;7958;53.024;12.970;2024-02-21T01:26:41;19.87;;;6.07;;
3571;SDS011;7958;53.024;12.970;2024-02-21T01:29:07;21.80;;;5.50;;
3571;SDS011;7958;53.024;12.970;2024-02-21T01:31:33;18.50;;;5.80;;
3571;SDS011;7958;53.024;12.970;2024-02-21T01:34:00;17.03;;;5.07;;
3571;SDS011;7958;53.024;12.970;2024-02-21T01:36:26;16.07;;;4.90;;
3571;SDS011;7958;53.024;12.970;2024-02-21T01:38:52;19.37;;;6.50;;
3571;SDS011;7958;53.024;12.970;2024-02-21T01:41:19;11.00;;;5.03;;
3571;SDS011;7958;53.024;12.970;2024-02-21T01:43:46;21.97;;;5.70;;
3571;SDS011;7958;53.024;12.970;2024-02-21T01:46:13;17.27;;;6.20;;
3571;SDS011;7958;53.024;12.970;2024-02-21T01:48:39;21.83;;;5.57;;
3571;SDS011;7958;53.024;12.970;2024-02-21T01:51:05;16.73;;;5.47;;
3571;SDS011;7958;53.024;12.970;2024-02-21T01:53:32;10.13;;;4.97;;
3571;SDS011;7958;53.024;12.970;2024-02-21T01:56:02;16.03;;;5.23;;
3571;SDS011;7958;53.024;12.970;2024-02-21T01:58:30;16.63;;;5.60;;
3571;SDS011;7958;53.024;12.970;2024-02-21T02:00:58;13.20;;;5.50;;
3571;SDS011;7958;53.024;12.970;2024-02-21T02:03:25;20.30;;;5.83;;
3571;SDS011;7958;53.024;12.970;2024-02-21T02:05:52;12.33;;;5.27;;
3571;SDS011;7958;53.024;12.970;2024-02-21T02:08:18;14.23;;;5.87;;
3571;SDS011;7958;53.024;12.970;2024-02-21T02:10:47;11.40;;;5.00;;
3571;SDS011;7958;53.024;12.970;2024-02-21T02:13:13;9.60;;;5.83;;
3571;SDS011;7958;53.024;12.970;2024-02-21T02:15:40;15.10;;;5.90;;
3571;SDS011;7958;53.024;12.970;2024-02-21T02:18:08;18.87;;;6.30;;
3571;SDS011;7958;53.024;12.970;2024-02-21T02:20:35;16.77;;;5.80;;
3571;SDS011;7958;53.024;12.970;2024-02-21T02:23:02;22.43;;;6.30;;
3571;SDS011;7958;53.024;12.970;2024-02-21T02:25:33;12.63;;;5.63;;
3571;SDS011;7958;53.024;12.970;2024-02-21T02:27:59;17.70;;;6.57;;
3571;SDS011;7958;53.024;12.970;2024-02-21T02:30:26;15.40;;;6.17;;
3571;SDS011;7958;53.024;12.970;2024-02-21T02:32:52;12.83;;;5.43;;
3571;SDS011;7958;53.024;12.970;2024-02-21T02:35:18;13.87;;;6.70;;
3571;SDS011;7958;53.024;12.970;2024-02-21T02:37:48;20.10;;;6.47;;
3571;SDS011;7958;53.024;12.970;2024-02-21T02:40:15;15.70;;;6.50;;
3571;SDS011;7958;53.024;12.970;2024-02-21T02:42:43;23.77;;;6.83;;
3571;SDS011;7958;53.024;12.970;2024-02-21T02:45:09;16.37;;;7.00;;
3571;SDS011;7958;53.024;12.970;2024-02-21T02:47:36;12.33;;;6.80;;
3571;SDS011;7958;53.024;12.970;2024-02-21T02:50:02;19.17;;;6.67;;
3571;SDS011;7958;53.024;12.970;2024-02-21T02:52:29;18.23;;;6.53;;
3571;SDS011;7958;53.024;12.970;2024-02-21T02:54:55;16.93;;;6.70;;
3571;SDS011;7958;53.024;12.970;2024-02-21T02:57:21;20.90;;;7.30;;
3571;SDS011;7958;53.024;12.970;2024-02-21T02:59:49;19.00;;;7.47;;
3571;SDS011;7958;53.024;12.970;2024-02-21T03:02:17;14.37;;;6.33;;
3571;SDS011;7958;53.024;12.970;2024-02-21T03:04:43;17.30;;;8.67;;
3571;SDS011;7958;53.024;12.970;2024-02-21T03:07:09;15.77;;;7.90;;
3571;SDS011;7958;53.024;12.970;2024-02-21T03:09:36;22.43;;;7.97;;
3571;SDS011;7958;53.024;12.970;2024-02-21T03:12:03;17.00;;;6.83;;
3571;SDS011;7958;53.024;12.970;2024-02-21T03:14:29;23.20;;;8.37;;
3571;SDS011;7958;53.024;12.970;2024-02-21T03:16:57;15.90;;;7.83;;
3571;SDS011;7958;53.024;12.970;2024-02-21T03:19:24;19.03;;;8.10;;
3571;SDS011;7958;53.024;12.970;2024-02-21T03:21:50;21.03;;;7.70;;
3571;SDS011;7958;53.024;12.970;2024-02-21T03:24:18;24.50;;;8.23;;
3571;SDS011;7958;53.024;12.970;2024-02-21T03:26:44;19.13;;;8.50;;
3571;SDS011;7958;53.024;12.970;2024-02-21T03:29:12;20.10;;;9.57;;
3571;SDS011;7958;53.024;12.970;2024-02-21T03:31:39;21.63;;;8.23;;
3571;SDS011;7958;53.024;12.970;2024-02-21T03:34:07;28.47;;;9.47;;
3571;SDS011;7958;53.024;12.970;2024-02-21T03:36:33;18.50;;;8.80;;
3571;SDS011;7958;53.024;12.970;2024-02-21T03:39:00;18.47;;;8.50;;
3571;SDS011;7958;53.024;12.970;2024-02-21T03:41:26;29.70;;;9.80;;
3571;SDS011;7958;53.024;12.970;2024-02-21T03:43:52;19.63;;;8.57;;
3571;SDS011;7958;53.024;12.970;2024-02-21T03:46:19;18.13;;;9.07;;
3571;SDS011;7958;53.024;12.970;2024-02-21T03:48:45;23.43;;;9.53;;
3571;SDS011;7958;53.024;12.970;2024-02-21T03:51:13;21.67;;;9.53;;
3571;SDS011;7958;53.024;12.970;2024-02-21T03:53:40;19.17;;;9.53;;
3571;SDS011;7958;53.024;12.970;2024-02-21T03:56:06;30.27;;;10.37;;
3571;SDS011;7958;53.024;12.970;2024-02-21T03:58:33;24.37;;;10.20;;
3571;SDS011;7958;53.024;12.970;2024-02-21T04:00:59;28.87;;;10.43;;
3571;SDS011;7958;53.024;12.970;2024-02-21T04:03:26;18.57;;;8.90;;
3571;SDS011;7958;53.024;12.970;2024-02-21T04:05:53;21.77;;;10.60;;
3571;SDS011;7958;53.024;12.970;2024-02-21T04:08:22;23.07;;;9.37;;
3571;SDS011;7958;53.024;12.970;2024-02-21T04:10:48;18.70;;;9.73;;
3571;SDS011;7958;53.024;12.970;2024-02-21T04:13:15;19.20;;;9.87;;
3571;SDS011;7958;53.024;12.970;2024-02-21T04:15:41;21.37;;;11.10;;
3571;SDS011;7958;53.024;12.970;2024-02-21T04:18:07;25.57;;;11.20;;
3571;SDS011;7958;53.024;12.970;2024-02-21T04:20:34;17.43;;;9.53;;
3571;SDS011;7958;53.024;12.970;2024-02-21T04:23:00;24.30;;;10.50;;
3571;SDS011;7958;53.024;12.970;2024-02-21T04:25:28;19.70;;;10.40;;
3571;SDS011;7958;53.024;12.970;2024-02-21T04:27:54;27.73;;;11.50;;
3571;SDS011;7958;53.024;12.970;2024-02-21T04:30:20;27.10;;;11.07;;
3571;SDS011;7958;53.024;12.970;2024-02-21T04:32:47;20.93;;;10.73;;
3571;SDS011;7958;53.024;12.970;2024-02-21T04:35:13;35.17;;;11.40;;
3571;SDS011;7958;53.024;12.970;2024-02-21T04:37:40;22.13;;;10.90;;
3571;SDS011;7958;53.024;12.970;2024-02-21T04:40:06;31.50;;;11.80;;
3571;SDS011;7958;53.024;12.970;2024-02-21T04:42:35;22.27;;;10.97;;
3571;SDS011;7958;53.024;12.970;2024-02-21T04:45:02;33.27;;;10.60;;
3571;SDS011;7958;53.024;12.970;2024-02-21T04:47:28;27.00;;;11.00;;
3571;SDS011;7958;53.024;12.970;2024-02-21T04:49:55;26.50;;;11.50;;
3571;SDS011;7958;53.024;12.970;2024-02-21T04:52:21;26.70;;;11.10;;
3571;SDS011;7958;53.024;12.970;2024-02-21T04:54:47;23.10;;;11.90;;
3571;SDS011;7958;53.024;12.970;2024-02-21T04:57:14;32.47;;;11.47;;
3571;SDS011;7958;53.024;12.970;2024-02-21T04:59:43;28.97;;;12.10;;
3571;SDS011;7958;53.024;12.970;2024-02-21T05:02:10;30.43;;;12.57;;
3571;SDS011;7958;53.024;12.970;2024-02-21T05:04:37;39.00;;;12.33;;
3571;SDS011;7958;53.024;12.970;2024-02-21T05:07:03;26.53;;;11.50;;
3571;SDS011;7958;53.024;12.970;2024-02-21T05:09:30;27.20;;;10.40;;
3571;SDS011;7958;53.024;12.970;2024-02-21T05:11:56;21.00;;;9.60;;
3571;SDS011;7958;53.024;12.970;2024-02-21T05:14:24;29.00;;;12.20;;
3571;SDS011;7958;53.024;12.970;2024-02-21T05:16:53;24.73;;;11.57;;
3571;SDS011;7958;53.024;12.970;2024-02-21T05:19:19;21.30;;;10.33;;
3571;SDS011;7958;53.024;12.970;2024-02-21T05:21:45;27.37;;;11.13;;
3571;SDS011;7958;53.024;12.970;2024-02-21T05:24:12;19.47;;;10.83;;
3571;SDS011;7958;53.024;12.970;2024-02-21T05:26:38;24.63;;;10.77;;
3571;SDS011;7958;53.024;12.970;2024-02-21T05:29:04;31.20;;;12.40;;
3571;SDS011;7958;53.024;12.970;2024-02-21T05:31:42;26.93;;;11.97;;
3571;SDS011;7958;53.024;12.970;2024-02-21T05:34:10;25.37;;;11.30;;
3571;SDS011;7958;53.024;12.970;2024-02-21T05:36:37;28.90;;;11.90;;
3571;SDS011;7958;53.024;12.970;2024-02-21T05:39:03;30.43;;;12.03;;
3571;SDS011;7958;53.024;12.970;2024-02-21T05:41:30;23.73;;;10.77;;
3571;SDS011;7958;53.024;12.970;2024-02-21T05:43:56;26.67;;;11.90;;
3571;SDS011;7958;53.024;12.970;2024-02-21T05:46:22;22.07;;;10.67;;
3571;SDS011;7958;53.024;12.970;2024-02-21T05:48:49;26.97;;;10.60;;
3571;SDS011;7958;53.024;12.970;2024-02-21T05:51:17;22.30;;;10.90;;
3571;SDS011;7958;53.024;12.970;2024-02-21T05:53:43;30.00;;;11.23;;
3571;SDS011;7958;53.024;12.970;2024-02-21T05:56:10;25.87;;;11.30;;
3571;SDS011;7958;53.024;12.970;2024-02-21T05:58:36;21.93;;;10.47;;
3571;SDS011;7958;53.024;12.970;2024-02-21T06:01:03;21.77;;;10.83;;
3571;SDS011;7958;53.024;12.970;2024-02-21T06:03:31;25.87;;;10.30;;
3571;SDS011;7958;53.024;12.970;2024-02-21T06:05:58;18.10;;;10.60;;
3571;SDS011;7958;53.024;12.970;2024-02-21T06:08:27;25.57;;;11.17;;
3571;SDS011;7958;53.024;12.970;2024-02-21T06:10:53;19.73;;;9.80;;
3571;SDS011;7958;53.024;12.970;2024-02-21T06:13:20;24.80;;;10.67;;
3571;SDS011;7958;53.024;12.970;2024-02-21T06:15:47;23.40;;;11.30;;
3571;SDS011;7958;53.024;12.970;2024-02-21T06:18:15;23.73;;;10.23;;
3571;SDS011;7958;53.024;12.970;2024-02-21T06:20:41;27.60;;;9.30;;
3571;SDS011;7958;53.024;12.970;2024-02-21T06:23:08;21.23;;;10.33;;
3571;SDS011;7958;53.024;12.970;2024-02-21T06:25:36;22.40;;;11.40;;
3571;SDS011;7958;53.024;12.970;2024-02-21T06:28:02;21.40;;;10.80;;
3571;SDS011;7958;53.024;12.970;2024-02-21T06:30:29;25.00;;;11.70;;
3571;SDS011;7958;53.024;12.970;2024-02-21T06:32:55;22.27;;;11.30;;
3571;SDS011;7958;53.024;12.970;2024-02-21T06:35:22;16.80;;;11.20;;
3571;SDS011;7958;53.024;12.970;2024-02-21T06:37:49;21.57;;;11.80;;
3571;SDS011;7958;53.024;12.970;2024-02-21T06:40:16;25.40;;;11.37;;
3571;SDS011;7958;53.024;12.970;2024-02-21T06:42:44;21.87;;;12.53;;
3571;SDS011;7958;53.024;12.970;2024-02-21T06:45:10;25.87;;;11.10;;
3571;SDS011;7958;53.024;12.970;2024-02-21T06:47:37;22.10;;;12.70;;
3571;SDS011;7958;53.024;12.970;2024-02-21T06:50:03;21.97;;;11.20;;
3571;SDS011;7958;53.024;12.970;2024-02-21T06:52:30;23.83;;;11.23;;
3571;SDS011;7958;53.024;12.970;2024-02-21T06:54:56;26.70;;;12.40;;
3571;SDS011;7958;53.024;12.970;2024-02-21T06:57:23;30.60;;;13.73;;
3571;SDS011;7958;53.024;12.970;2024-02-21T06:59:51;22.97;;;11.67;;
3571;SDS011;7958;53.024;12.970;2024-02-21T07:02:19;19.40;;;10.50;;
3571;SDS011;7958;53.024;12.970;2024-02-21T07:04:46;25.53;;;10.77;;
3571;SDS011;7958;53.024;12.970;2024-02-21T07:07:12;27.13;;;11.37;;
3571;SDS011;7958;53.024;12.970;2024-02-21T07:09:38;25.30;;;10.67;;
3571;SDS011;7958;53.024;12.970;2024-02-21T07:12:05;24.57;;;11.73;;
3571;SDS011;7958;53.024;12.970;2024-02-21T07:14:32;24.27;;;12.10;;
3571;SDS011;7958;53.024;12.970;2024-02-21T07:17:00;24.20;;;12.10;;
3571;SDS011;7958;53.024;12.970;2024-02-21T07:19:26;23.97;;;11.53;;
3571;SDS011;7958;53.024;12.970;2024-02-21T07:21:52;19.20;;;12.20;;
3571;SDS011;7958;53.024;12.970;2024-02-21T07:24:19;25.47;;;11.57;;
3571;SDS011;7958;53.024;12.970;2024-02-21T07:26:46;24.03;;;11.50;;
3571;SDS011;7958;53.024;12.970;2024-02-21T07:29:12;24.63;;;11.90;;
3571;SDS011;7958;53.024;12.970;2024-02-21T07:31:40;28.97;;;12.10;;
3571;SDS011;7958;53.024;12.970;2024-02-21T07:34:08;29.67;;;15.07;;
3571;SDS011;7958;53.024;12.970;2024-02-21T07:36:34;22.57;;;13.40;;
3571;SDS011;7958;53.024;12.970;2024-02-21T07:39:02;31.90;;;12.27;;
3571;SDS011;7958;53.024;12.970;2024-02-21T07:41:29;24.50;;;12.47;;
3571;SDS011;7958;53.024;12.970;2024-02-21T07:43:56;18.37;;;11.37;;
3571;SDS011;7958;53.024;12.970;2024-02-21T07:46:22;15.90;;;10.37;;
3571;SDS011;7958;53.024;12.970;2024-02-21T07:48:48;32.60;;;14.00;;
3571;SDS011;7958;53.024;12.970;2024-02-21T07:51:16;43.63;;;15.43;;
3571;SDS011;7958;53.024;12.970;2024-02-21T07:53:43;22.97;;;11.07;;
3571;SDS011;7958;53.024;12.970;2024-02-21T07:56:10;19.30;;;11.93;;
3571;SDS011;7958;53.024;12.970;2024-02-21T07:58:36;22.80;;;11.37;;
3571;SDS011;7958;53.024;12.970;2024-02-21T08:01:03;25.37;;;11.53;;
3571;SDS011;7958;53.024;12.970;2024-02-21T08:03:29;26.50;;;11.87;;
3571;SDS011;7958;53.024;12.970;2024-02-21T08:05:56;19.40;;;11.87;;
3571;SDS011;7958;53.024;12.970;2024-02-21T08:08:23;21.90;;;11.00;;
3571;SDS011;7958;53.024;12.970;2024-02-21T08:10:51;21.77;;;11.50;;
3571;SDS011;7958;53.024;12.970;2024-02-21T08:13:17;23.13;;;12.07;;
3571;SDS011;7958;53.024;12.970;2024-02-21T08:15:44;23.37;;;10.33;;
3571;SDS011;7958;53.024;12.970;2024-02-21T08:18:10;25.93;;;12.27;;
3571;SDS011;7958;53.024;12.970;2024-02-21T08:20:36;25.67;;;11.03;;
3571;SDS011;7958;53.024;12.970;2024-02-21T08:23:03;24.27;;;12.60;;
3571;SDS011;7958;53.024;12.970;2024-02-21T08:25:31;20.80;;;11.97;;
3571;SDS011;7958;53.024;12.970;2024-02-21T08:27:58;24.87;;;11.33;;
3571;SDS011;7958;53.024;12.970;2024-02-21T08:30:25;23.07;;;11.70;;
3571;SDS011;7958;53.024;12.970;2024-02-21T08:32:51;21.73;;;12.23;;
3571;SDS011;7958;53.024;12.970;2024-02-21T08:35:18;25.20;;;11.80;;
3571;SDS011;7958;53.024;12.970;2024-02-21T08:37:47;24.73;;;11.00;;
3571;SDS011;7958;53.024;12.970;2024-02-21T08:40:14;22.63;;;12.37;;
3571;SDS011;7958;53.024;12.970;2024-02-21T08:42:43;24.27;;;10.23;;
3571;SDS011;7958;53.024;12.970;2024-02-21T08:45:10;20.40;;;11.50;;
3571;SDS011;7958;53.024;12.970;2024-02-21T08:47:38;21.87;;;11.20;;
3571;SDS011;7958;53.024;12.970;2024-02-21T08:50:05;21.90;;;11.30;;
3571;SDS011;7958;53.024;12.970;2024-02-21T08:52:32;27.60;;;12.97;;
3571;SDS011;7958;53.024;12.970;2024-02-21T08:54:59;21.20;;;11.07;;
3571;SDS011;7958;53.024;12.970;2024-02-21T08:57:25;18.83;;;11.03;;
3571;SDS011;7958;53.024;12.970;2024-02-21T08:59:54;34.33;;;13.27;;
3571;SDS011;7958;53.024;12.970;2024-02-21T09:02:20;21.23;;;11.00;;
3571;SDS011;7958;53.024;12.970;2024-02-21T09:04:46;17.13;;;10.20;;
3571;SDS011;7958;53.024;12.970;2024-02-21T09:07:13;18.50;;;11.10;;
3571;SDS011;7958;53.024;12.970;2024-02-21T09:09:39;17.17;;;9.93;;
3571;SDS011;7958;53.024;12.970;2024-02-21T09:12:06;16.10;;;9.37;;
3571;SDS011;7958;53.024;12.970;2024-02-21T09:14:33;15.07;;;9.33;;
3571;SDS011;7958;53.024;12.970;2024-02-21T09:17:01;19.63;;;11.07;;
3571;SDS011;7958;53.024;12.970;2024-02-21T09:19:27;17.70;;;10.13;;
3571;SDS011;7958;53.024;12.970;2024-02-21T09:21:54;19.07;;;9.90;;
3571;SDS011;7958;53.024;12.970;2024-02-21T09:24:21;18.23;;;9.40;;
3571;SDS011;7958;53.024;12.970;2024-02-21T09:26:47;14.70;;;9.77;;
3571;SDS011;7958;53.024;12.970;2024-02-21T09:29:13;15.07;;;10.13;;
3571;SDS011;7958;53.024;12.970;2024-02-21T09:31:41;14.67;;;8.57;;
3571;SDS011;7958;53.024;12.970;2024-02-21T09:34:08;15.07;;;9.60;;
3571;SDS011;7958;53.024;12.970;2024-02-21T09:36:36;16.80;;;9.90;;
3571;SDS011;7958;53.024;12.970;2024-02-21T09:39:03;18.30;;;9.90;;
3571;SDS011;7958;53.024;12.970;2024-02-21T09:41:29;20.20;;;9.43;;
3571;SDS011;7958;53.024;12.970;2024-02-21T09:43:56;20.70;;;10.47;;
3571;SDS011;7958;53.024;12.970;2024-02-21T09:46:25;13.17;;;9.13;;
3571;SDS011;7958;53.024;12.970;2024-02-21T09:48:58;15.43;;;9.73;;
3571;SDS011;7958;53.024;12.970;2024-02-21T09:51:31;16.67;;;10.43;;
3571;SDS011;7958;53.024;12.970;2024-02-21T09:53:59;18.17;;;11.00;;
3571;SDS011;7958;53.024;12.970;2024-02-21T09:56:25;13.13;;;9.57;;
3571;SDS011;7958;53.024;12.970;2024-02-21T09:58:52;18.23;;;9.60;;
3571;SDS011;7958;53.024;12.970;2024-02-21T10:01:18;15.30;;;10.17;;
3571;SDS011;7958;53.024;12.970;2024-02-21T10:03:45;14.87;;;9.60;;
3571;SDS011;7958;53.024;12.970;2024-02-21T10:06:13;15.40;;;9.30;;
3571;SDS011;7958;53.024;12.970;2024-02-21T10:08:41;17.13;;;9.77;;
3571;SDS011;7958;53.024;12.970;2024-02-21T10:11:07;17.60;;;9.40;;
3571;SDS011;7958;53.024;12.970;2024-02-21T10:13:35;15.40;;;9.63;;
3571;SDS011;7958;53.024;12.970;2024-02-21T10:16:03;10.40;;;8.80;;
3571;SDS011;7958;53.024;12.970;2024-02-21T10:18:30;12.93;;;9.40;;
3571;SDS011;7958;53.024;12.970;2024-02-21T10:21:01;14.77;;;8.40;;
3571;SDS011;7958;53.024;12.970;2024-02-21T10:23:45;13.87;;;8.97;;
3571;SDS011;7958;53.024;12.970;2024-02-21T10:26:12;14.60;;;8.97;;
3571;SDS011;7958;53.024;12.970;2024-02-21T10:28:39;16.03;;;8.47;;
3571;SDS011;7958;53.024;12.970;2024-02-21T10:31:07;12.60;;;8.10;;
3571;SDS011;7958;53.024;12.970;2024-02-21T10:33:34;14.53;;;9.10;;
3571;SDS011;7958;53.024;12.970;2024-02-21T10:36:07;12.57;;;8.50;;
3571;SDS011;7958;53.024;12.970;2024-02-21T10:38:35;11.67;;;8.90;;
3571;SDS011;7958;53.024;12.970;2024-02-21T10:41:03;13.73;;;9.00;;
3571;SDS011;7958;53.024;12.970;2024-02-21T10:43:30;13.17;;;8.63;;
3571;SDS011;7958;53.024;12.970;2024-02-21T10:46:05;14.83;;;8.10;;
3571;SDS011;7958;53.024;12.970;2024-02-21T10:48:33;12.30;;;8.30;;
3571;SDS011;7958;53.024;12.970;2024-02-21T10:51:09;16.30;;;8.70;;
3571;SDS011;7958;53.024;12.970;2024-02-21T10:53:41;10.10;;;7.53;;
3571;SDS011;7958;53.024;12.970;2024-02-21T10:56:22;10.87;;;8.50;;
3571;SDS011;7958;53.024;12.970;2024-02-21T10:58:53;15.50;;;8.60;;
3571;SDS011;7958;53.024;12.970;2024-02-21T11:01:20;15.30;;;8.20;;
3571;SDS011;7958;53.024;12.970;2024-02-21T11:03:46;8.53;;;7.13;;
3571;SDS011;7958;53.024;12.970;2024-02-21T11:06:15;10.00;;;8.00;;
3571;SDS011;7958;53.024;12.970;2024-02-21T11:08:42;10.97;;;7.80;;
3571;SDS011;7958;53.024;12.970;2024-02-21T11:11:11;15.97;;;8.67;;
3571;SDS011;7958;53.024;12.970;2024-02-21T11:13:43;14.73;;;7.87;;
3571;SDS011;7958;53.024;12.970;2024-02-21T11:16:11;12.20;;;7.50;;
3571;SDS011;7958;53.024;12.970;2024-02-21T11:18:38;14.40;;;9.47;;
3571;SDS011;7958;53.024;12.970;2024-02-21T11:21:04;14.10;;;9.07;;
3571;SDS011;7958;53.024;12.970;2024-02-21T11:23:31;11.73;;;7.23;;
3571;SDS011;7958;53.024;12.970;2024-02-21T11:26:05;8.80;;;6.60;;
3571;SDS011;7958;53.024;12.970;2024-02-21T11:28:33;10.40;;;7.50;;
3571;SDS011;7958;53.024;12.970;2024-02-21T11:31:07;11.63;;;6.87;;
3571;SDS011;7958;53.024;12.970;2024-02-21T11:33:34;9.40;;;8.40;;
3571;SDS011;7958;53.024;12.970;2024-02-21T11:36:01;13.97;;;7.90;;
3571;SDS011;7958;53.024;12.970;2024-02-21T11:38:29;11.03;;;7.40;;
3571;SDS011;7958;53.024;12.970;2024-02-21T11:40:55;9.53;;;7.70;;
3571;SDS011;7958;53.024;12.970;2024-02-21T11:43:23;23.37;;;14.60;;
3571;SDS011;7958;53.024;12.970;2024-02-21T11:45:51;11.90;;;8.70;;
3571;SDS011;7958;53.024;12.970;2024-02-21T11:48:25;11.87;;;8.63;;
3571;SDS011;7958;53.024;12.970;2024-02-21T11:50:54;12.40;;;7.00;;
3571;SDS011;7958;53.024;12.970;2024-02-21T11:53:21;8.57;;;6.80;;
3571;SDS011;7958;53.024;12.970;2024-02-21T11:55:47;16.53;;;7.80;;
3571;SDS011;7958;53.024;12.970;2024-02-21T11:58:14;11.50;;;9.53;;
3571;SDS011;7958;53.024;12.970;2024-02-21T12:00:41;8.73;;;6.10;;
3571;SDS011;7958;53.024;12.970;2024-02-21T12:03:08;9.40;;;6.87;;
3571;SDS011;7958;53.024;12.970;2024-02-21T12:05:35;14.77;;;7.73;;
3571;SDS011;7958;53.024;12.970;2024-02-21T12:08:01;12.93;;;7.10;;
3571;SDS011;7958;53.024;12.970;2024-02-21T12:10:29;9.47;;;6.53;;
3571;SDS011;7958;53.024;12.970;2024-02-21T12:13:04;9.87;;;5.97;;
3571;SDS011;7958;53.024;12.970;2024-02-21T12:15:31;11.03;;;7.60;;
3571;SDS011;7958;53.024;12.970;2024-02-21T12:17:57;8.33;;;6.20;;
3571;SDS011;7958;53.024;12.970;2024-02-21T12:20:26;14.40;;;9.03;;
3571;SDS011;7958;53.024;12.970;2024-02-21T12:22:52;15.00;;;8.47;;
3571;SDS011;7958;53.024;12.970;2024-02-21T12:25:20;12.33;;;7.33;;
3571;SDS011;7958;53.024;12.970;2024-02-21T12:27:48;11.80;;;6.77;;
3571;SDS011;7958;53.024;12.970;2024-02-21T12:30:15;13.27;;;9.50;;
3571;SDS011;7958;53.024;12.970;2024-02-21T12:32:41;13.33;;;8.20;;
3571;SDS011;7958;53.024;12.970;2024-02-21T12:35:08;11.70;;;7.97;;
3571;SDS011;7958;53.024;12.970;2024-02-21T12:37:36;8.67;;;6.93;;
3571;SDS011;7958;53.024;12.970;2024-02-21T12:40:04;14.07;;;7.97;;
3571;SDS011;7958;53.024;12.970;2024-02-21T12:42:32;14.33;;;7.87;;
3571;SDS011;7958;53.024;12.970;2024-02-21T12:44:58;10.87;;;8.10;;
3571;SDS011;7958;53.024;12.970;2024-02-21T12:47:25;12.20;;;7.70;;
3571;SDS011;7958;53.024;12.970;2024-02-21T12:49:51;11.47;;;7.70;;
3571;SDS011;7958;53.024;12.970;2024-02-21T12:52:18;11.40;;;7.90;;
3571;SDS011;7958;53.024;12.970;2024-02-21T12:54:46;7.40;;;6.00;;
3571;SDS011;7958;53.024;12.970;2024-02-21T12:57:12;10.77;;;7.67;;
3571;SDS011;7958;53.024;12.970;2024-02-21T12:59:39;27.57;;;6.47;;
3571;SDS011;7958;53.024;12.970;2024-02-21T13:02:06;11.40;;;6.27;;
3571;SDS011;7958;53.024;12.970;2024-02-21T13:04:33;12.60;;;7.50;;
3571;SDS011;7958;53.024;12.970;2024-02-21T13:06:59;9.77;;;7.40;;
3571;SDS011;7958;53.024;12.970;2024-02-21T13:09:26;11.30;;;7.37;;
3571;SDS011;7958;53.024;12.970;2024-02-21T13:11:53;11.13;;;7.33;;
3571;SDS011;7958;53.024;12.970;2024-02-21T13:14:20;8.63;;;6.00;;
3571;SDS011;7958;53.024;12.970;2024-02-21T13:16:48;7.17;;;6.10;;
3571;SDS011;7958;53.024;12.970;2024-02-21T13:19:15;8.20;;;6.33;;
3571;SDS011;7958;53.024;12.970;2024-02-21T13:21:42;7.33;;;5.57;;
3571;SDS011;7958;53.024;12.970;2024-02-21T13:24:10;11.33;;;6.37;;
3571;SDS011;7958;53.024;12.970;2024-02-21T13:26:36;10.40;;;6.20;;
3571;SDS011;7958;53.024;12.970;2024-02-21T13:29:04;10.07;;;5.53;;
3571;SDS011;7958;53.024;12.970;2024-02-21T13:31:30;8.03;;;5.80;;
3571;SDS011;7958;53.024;12.970;2024-02-21T13:33:57;11.60;;;6.40;;
3571;SDS011;7958;53.024;12.970;2024-02-21T13:36:23;11.97;;;6.53;;
3571;SDS011;7958;53.024;12.970;2024-02-21T13:38:49;9.27;;;6.03;;
3571;SDS011;7958;53.024;12.970;2024-02-21T13:41:16;9.97;;;6.33;;
3571;SDS011;7958;53.024;12.970;2024-02-21T13:43:43;8.60;;;6.10;;
3571;SDS011;7958;53.024;12.970;2024-02-21T13:46:13;9.40;;;6.70;;
3571;SDS011;7958;53.024;12.970;2024-02-21T13:48:40;13.73;;;6.80;;
3571;SDS011;7958;53.024;12.970;2024-02-21T13:51:06;11.07;;;6.53;;
3571;SDS011;7958;53.024;12.970;2024-02-21T13:53:33;10.70;;;6.73;;
3571;SDS011;7958;53.024;12.970;2024-02-21T13:56:00;10.13;;;6.57;;
3571;SDS011;7958;53.024;12.970;2024-02-21T13:58:26;13.13;;;6.90;;
3571;SDS011;7958;53.024;12.970;2024-02-21T14:00:53;6.57;;;5.83;;
3571;SDS011;7958;53.024;12.970;2024-02-21T14:03:20;12.03;;;6.97;;
3571;SDS011;7958;53.024;12.970;2024-02-21T14:05:47;11.87;;;6.43;;
3571;SDS011;7958;53.024;12.970;2024-02-21T14:08:14;13.17;;;6.43;;
3571;SDS011;7958;53.024;12.970;2024-02-21T14:10:40;10.63;;;6.00;;
3571;SDS011;7958;53.024;12.970;2024-02-21T14:13:07;7.63;;;5.40;;
3571;SDS011;7958;53.024;12.970;2024-02-21T14:15:33;14.27;;;9.97;;
3571;SDS011;7958;53.024;12.970;2024-02-21T14:18:01;29.17;;;19.80;;
3571;SDS011;7958;53.024;12.970;2024-02-21T14:20:32;21.60;;;15.40;;
3571;SDS011;7958;53.024;12.970;2024-02-21T14:22:58;10.17;;;7.10;;
3571;SDS011;7958;53.024;12.970;2024-02-21T14:25:24;8.43;;;5.40;;
3571;SDS011;7958;53.024;12.970;2024-02-21T14:27:51;10.33;;;6.53;;
3571;SDS011;7958;53.024;12.970;2024-02-21T14:30:17;12.80;;;8.63;;
3571;SDS011;7958;53.024;12.970;2024-02-21T14:32:43;13.73;;;8.80;;
3571;SDS011;7958;53.024;12.970;2024-02-21T14:35:10;9.37;;;6.80;;
3571;SDS011;7958;53.024;12.970;2024-02-21T14:37:38;8.60;;;6.50;;
3571;SDS011;7958;53.024;12.970;2024-02-21T14:40:04;8.43;;;6.80;;
3571;SDS011;7958;53.024;12.970;2024-02-21T14:42:31;10.00;;;6.77;;